sensor_id;sensor_type;location;lat;lon;timestamp;temperature;humidity
21261;DHT22;10788;47.930;9.766;2024-03-23T00:52:51;10.00;99.90
21261;DHT22;10788;47.930;9.766;2024-03-23T00:55:16;10.00;99.90
21261;DHT22;10788;47.930;9.766;2024-03-23T00:57:42;10.00;99.90
21261;DHT22;10788;47.930;9.766;2024-03-23T01:00:08;9.90;99.90
21261;DHT22;10788;47.930;9.766;2024-03-23T01:02:36;9.90;99.90
21261;DHT22;10788;47.930;9.766;2024-03-23T01:05:01;9.80;99.90
21261;DHT22;10788;47.930;9.766;2024-03-23T01:07:27;9.80;99.90
21261;DHT22;10788;47.930;9.766;2024-03-23T01:09:53;9.70;99.90
21261;DHT22;10788;47.930;9.766;2024-03-23T01:12:18;9.70;99.90
21261;DHT22;10788;47.930;9.766;2024-03-23T01:14:44;9.70;99.90
21261;DHT22;10788;47.930;9.766;2024-03-23T01:17:10;9.70;99.90
21261;DHT22;10788;47.930;9.766;2024-03-23T01:19:35;9.70;99.90
21261;DHT22;10788;47.930;9.766;2024-03-23T01:22:01;9.60;99.90
21261;DHT22;10788;47.930;9.766;2024-03-23T01:24:27;9.60;99.90
21261;DHT22;10788;47.930;9.766;2024-03-23T01:26:52;9.50;99.90
21261;DHT22;10788;47.930;9.766;2024-03-23T01:29:18;9.50;99.90
21261;DHT22;10788;47.930;9.766;2024-03-23T01:31:44;9.50;99.90
21261;DHT22;10788;47.930;9.766;2024-03-23T01:34:09;9.50;99.90
21261;DHT22;10788;47.930;9.766;2024-03-23T01:36:35;9.40;99.90
21261;DHT22;10788;47.930;9.766;2024-03-23T01:39:01;9.40;99.90
21261;DHT22;10788;47.930;9.766;2024-03-23T01:41:26;9.30;99.90
21261;DHT22;10788;47.930;9.766;2024-03-23T01:43:55;9.30;99.90
21261;DHT22;10788;47.930;9.766;2024-03-23T01:46:21;9.30;99.90
21261;DHT22;10788;47.930;9.766;2024-03-23T01:48:46;9.20;99.90
21261;DHT22;10788;47.930;9.766;2024-03-23T01:51:13;9.20;99.90
21261;DHT22;10788;47.930;9.766;2024-03-23T01:53:38;9.10;99.90
21261;DHT22;10788;47.930;9.766;2024-03-23T01:56:05;9.10;99.90
21261;DHT22;10788;47.930;9.766;2024-03-23T01:58:31;9.10;99.90
21261;DHT22;10788;47.930;9.766;2024-03-23T02:00:58;9.00;99.90
21261;DHT22;10788;47.930;9.766;2024-03-23T02:03:24;9.00;99.90
21261;DHT22;10788;47.930;9.766;2024-03-23T02:05:51;9.00;99.90
21261;DHT22;10788;47.930;9.766;2024-03-23T02:08:23;9.00;99.90
21261;DHT22;10788;47.930;9.766;2024-03-23T02:10:49;9.00;99.90
21261;DHT22;10788;47.930;9.766;2024-03-23T02:13:17;9.00;99.90
21261;DHT22;10788;47.930;9.766;2024-03-23T02:15:42;9.00;99.90
21261;DHT22;10788;47.930;9.766;2024-03-23T02:18:08;9.10;99.90
21261;DHT22;10788;47.930;9.766;2024-03-23T02:20:35;9.10;99.90
21261;DHT22;10788;47.930;9.766;2024-03-23T02:23:01;9.10;99.90
21261;DHT22;10788;47.930;9.766;2024-03-23T02:25:26;9.10;99.90
21261;DHT22;10788;47.930;9.766;2024-03-23T02:27:52;9.10;99.90
21261;DHT22;10788;47.930;9.766;2024-03-23T02:30:21;9.10;99.90
21261;DHT22;10788;47.930;9.766;2024-03-23T02:32:47;9.10;99.90
21261;DHT22;10788;47.930;9.766;2024-03-23T02:35:12;9.00;99.90
21261;DHT22;10788;47.930;9.766;2024-03-23T02:37:38;9.00;99.90
21261;DHT22;10788;47.930;9.766;2024-03-23T02:40:04;9.00;99.90
21261;DHT22;10788;47.930;9.766;2024-03-23T02:42:30;9.00;99.90
21261;DHT22;10788;47.930;9.766;2024-03-23T02:44:56;9.10;99.90
21261;DHT22;10788;47.930;9.766;2024-03-23T02:47:22;9.10;99.90
21261;DHT22;10788;47.930;9.766;2024-03-23T02:49:48;9.00;99.90
21261;DHT22;10788;47.930;9.766;2024-03-23T02:52:13;9.10;99.90
21261;DHT22;10788;47.930;9.766;2024-03-23T02:54:39;9.10;99.90
21261;DHT22;10788;47.930;9.766;2024-03-23T02:57:05;9.10;99.90
21261;DHT22;10788;47.930;9.766;2024-03-23T02:59:30;9.00;99.90
21261;DHT22;10788;47.930;9.766;2024-03-23T03:01:56;9.10;99.90
21261;DHT22;10788;47.930;9.766;2024-03-23T03:04:21;9.00;99.90
21261;DHT22;10788;47.930;9.766;2024-03-23T03:06:48;9.00;99.90
21261;DHT22;10788;47.930;9.766;2024-03-23T03:09:13;8.90;99.90
21261;DHT22;10788;47.930;9.766;2024-03-23T03:11:39;9.00;99.90
21261;DHT22;10788;47.930;9.766;2024-03-23T03:14:05;9.00;99.90
21261;DHT22;10788;47.930;9.766;2024-03-23T03:16:33;9.00;99.90
21261;DHT22;10788;47.930;9.766;2024-03-23T03:18:58;9.10;99.90
21261;DHT22;10788;47.930;9.766;2024-03-23T03:21:24;9.10;99.90
21261;DHT22;10788;47.930;9.766;2024-03-23T03:23:50;9.10;99.90
21261;DHT22;10788;47.930;9.766;2024-03-23T03:26:16;9.10;99.90
21261;DHT22;10788;47.930;9.766;2024-03-23T03:28:43;9.20;99.90
21261;DHT22;10788;47.930;9.766;2024-03-23T03:31:16;9.30;99.90
21261;DHT22;10788;47.930;9.766;2024-03-23T03:33:43;9.30;99.90
21261;DHT22;10788;47.930;9.766;2024-03-23T03:36:08;9.20;99.90
21261;DHT22;10788;47.930;9.766;2024-03-23T03:38:34;9.20;99.90
21261;DHT22;10788;47.930;9.766;2024-03-23T03:41:06;9.20;99.90
21261;DHT22;10788;47.930;9.766;2024-03-23T03:43:32;9.20;99.90
21261;DHT22;10788;47.930;9.766;2024-03-23T03:46:00;9.20;99.90
21261;DHT22;10788;47.930;9.766;2024-03-23T03:48:26;9.20;99.90
21261;DHT22;10788;47.930;9.766;2024-03-23T03:50:52;9.20;99.90
21261;DHT22;10788;47.930;9.766;2024-03-23T03:53:18;9.20;99.90
21261;DHT22;10788;47.930;9.766;2024-03-23T03:55:44;9.20;99.90
21261;DHT22;10788;47.930;9.766;2024-03-23T03:58:10;9.20;99.90
21261;DHT22;10788;47.930;9.766;2024-03-23T04:00:35;9.20;99.90
21261;DHT22;10788;47.930;9.766;2024-03-23T04:03:01;9.20;99.90
21261;DHT22;10788;47.930;9.766;2024-03-23T04:05:27;9.30;99.90
21261;DHT22;10788;47.930;9.766;2024-03-23T04:07:53;9.40;99.90
21261;DHT22;10788;47.930;9.766;2024-03-23T04:10:19;9.40;99.90
21261;DHT22;10788;47.930;9.766;2024-03-23T04:12:45;9.50;99.90
21261;DHT22;10788;47.930;9.766;2024-03-23T04:15:11;9.50;99.90
21261;DHT22;10788;47.930;9.766;2024-03-23T04:17:37;9.50;99.90
21261;DHT22;10788;47.930;9.766;2024-03-23T04:20:03;9.50;99.90
21261;DHT22;10788;47.930;9.766;2024-03-23T04:22:34;9.50;99.90
21261;DHT22;10788;47.930;9.766;2024-03-23T04:25:00;9.60;99.90
21261;DHT22;10788;47.930;9.766;2024-03-23T04:27:35;9.50;99.90
21261;DHT22;10788;47.930;9.766;2024-03-23T04:30:01;9.60;99.90
21261;DHT22;10788;47.930;9.766;2024-03-23T04:32:27;9.60;99.90
21261;DHT22;10788;47.930;9.766;2024-03-23T04:34:54;9.70;99.90
21261;DHT22;10788;47.930;9.766;2024-03-23T04:37:23;9.70;99.90
21261;DHT22;10788;47.930;9.766;2024-03-23T04:39:49;9.80;99.90
21261;DHT22;10788;47.930;9.766;2024-03-23T04:42:17;9.80;99.90
21261;DHT22;10788;47.930;9.766;2024-03-23T04:44:43;9.80;99.90
21261;DHT22;10788;47.930;9.766;2024-03-23T04:47:10;9.80;99.90
21261;DHT22;10788;47.930;9.766;2024-03-23T04:49:36;9.80;99.90
21261;DHT22;10788;47.930;9.766;2024-03-23T04:52:04;9.90;99.90
21261;DHT22;10788;47.930;9.766;2024-03-23T04:54:29;9.90;99.90
21261;DHT22;10788;47.930;9.766;2024-03-23T04:56:56;10.00;99.90
21261;DHT22;10788;47.930;9.766;2024-03-23T04:59:21;9.90;99.90
21261;DHT22;10788;47.930;9.766;2024-03-23T05:01:47;10.00;99.90
21261;DHT22;10788;47.930;9.766;2024-03-23T05:04:13;10.00;99.90
21261;DHT22;10788;47.930;9.766;2024-03-23T05:06:38;9.90;99.90
21261;DHT22;10788;47.930;9.766;2024-03-23T05:09:04;9.80;99.90
21261;DHT22;10788;47.930;9.766;2024-03-23T05:11:36;9.80;99.90
21261;DHT22;10788;47.930;9.766;2024-03-23T05:14:01;9.80;99.90
21261;DHT22;10788;47.930;9.766;2024-03-23T05:16:28;9.70;99.90
21261;DHT22;10788;47.930;9.766;2024-03-23T05:18:54;9.70;99.90
21261;DHT22;10788;47.930;9.766;2024-03-23T05:21:19;9.70;99.90
21261;DHT22;10788;47.930;9.766;2024-03-23T05:23:45;9.70;99.90
21261;DHT22;10788;47.930;9.766;2024-03-23T05:26:11;9.70;99.90
21261;DHT22;10788;47.930;9.766;2024-03-23T05:28:36;9.60;99.90
21261;DHT22;10788;47.930;9.766;2024-03-23T05:31:02;9.60;99.90
21261;DHT22;10788;47.930;9.766;2024-03-23T05:33:28;9.60;99.90
21261;DHT22;10788;47.930;9.766;2024-03-23T05:35:58;9.60;99.90
21261;DHT22;10788;47.930;9.766;2024-03-23T05:38:23;9.50;99.90
21261;DHT22;10788;47.930;9.766;2024-03-23T05:40:56;9.60;99.90
21261;DHT22;10788;47.930;9.766;2024-03-23T05:43:22;9.60;99.90
21261;DHT22;10788;47.930;9.766;2024-03-23T05:45:58;9.60;99.90
21261;DHT22;10788;47.930;9.766;2024-03-23T05:48:24;9.70;99.90
21261;DHT22;10788;47.930;9.766;2024-03-23T05:50:50;9.80;99.90
21261;DHT22;10788;47.930;9.766;2024-03-23T05:53:16;9.80;99.90
21261;DHT22;10788;47.930;9.766;2024-03-23T05:55:43;9.90;99.90
21261;DHT22;10788;47.930;9.766;2024-03-23T05:58:08;9.90;99.90
21261;DHT22;10788;47.930;9.766;2024-03-23T06:00:34;10.10;99.90
21261;DHT22;10788;47.930;9.766;2024-03-23T06:03:00;10.20;99.90
21261;DHT22;10788;47.930;9.766;2024-03-23T06:05:26;10.30;99.90
21261;DHT22;10788;47.930;9.766;2024-03-23T06:07:51;10.20;99.90
21261;DHT22;10788;47.930;9.766;2024-03-23T06:10:17;10.20;99.90
21261;DHT22;10788;47.930;9.766;2024-03-23T06:12:45;10.10;99.90
21261;DHT22;10788;47.930;9.766;2024-03-23T06:15:11;10.10;99.90
21261;DHT22;10788;47.930;9.766;2024-03-23T06:17:37;10.10;99.90
21261;DHT22;10788;47.930;9.766;2024-03-23T06:20:03;10.10;99.90
21261;DHT22;10788;47.930;9.766;2024-03-23T06:22:29;10.00;99.90
21261;DHT22;10788;47.930;9.766;2024-03-23T06:24:55;9.90;99.90
21261;DHT22;10788;47.930;9.766;2024-03-23T06:27:20;9.90;99.90
21261;DHT22;10788;47.930;9.766;2024-03-23T06:29:46;9.70;99.90
21261;DHT22;10788;47.930;9.766;2024-03-23T06:32:12;9.60;99.90
21261;DHT22;10788;47.930;9.766;2024-03-23T06:34:37;9.70;99.90
21261;DHT22;10788;47.930;9.766;2024-03-23T06:37:03;9.60;99.90
21261;DHT22;10788;47.930;9.766;2024-03-23T06:39:29;9.70;99.90
21261;DHT22;10788;47.930;9.766;2024-03-23T06:41:55;9.60;99.90
21261;DHT22;10788;47.930;9.766;2024-03-23T06:44:22;9.70;99.90
21261;DHT22;10788;47.930;9.766;2024-03-23T06:46:47;9.70;99.90
21261;DHT22;10788;47.930;9.766;2024-03-23T06:49:14;9.70;99.90
21261;DHT22;10788;47.930;9.766;2024-03-23T06:51:41;9.60;99.90
21261;DHT22;10788;47.930;9.766;2024-03-23T06:54:06;9.50;99.90
21261;DHT22;10788;47.930;9.766;2024-03-23T06:56:32;9.40;99.90
21261;DHT22;10788;47.930;9.766;2024-03-23T06:58:58;9.40;99.90
21261;DHT22;10788;47.930;9.766;2024-03-23T07:01:24;9.30;99.90
21261;DHT22;10788;47.930;9.766;2024-03-23T07:03:50;9.30;99.90
21261;DHT22;10788;47.930;9.766;2024-03-23T07:06:16;9.20;99.90
21261;DHT22;10788;47.930;9.766;2024-03-23T07:08:41;9.20;99.90
21261;DHT22;10788;47.930;9.766;2024-03-23T07:11:07;9.20;99.90
21261;DHT22;10788;47.930;9.766;2024-03-23T07:13:32;9.20;99.90
21261;DHT22;10788;47.930;9.766;2024-03-23T07:15:58;9.30;99.90
21261;DHT22;10788;47.930;9.766;2024-03-23T07:18:25;9.20;99.90
21261;DHT22;10788;47.930;9.766;2024-03-23T07:20:56;9.20;99.90
21261;DHT22;10788;47.930;9.766;2024-03-23T07:23:22;9.10;99.90
21261;DHT22;10788;47.930;9.766;2024-03-23T07:26:02;9.10;99.90
21261;DHT22;10788;47.930;9.766;2024-03-23T07:28:28;9.10;99.90
21261;DHT22;10788;47.930;9.766;2024-03-23T07:31:07;9.10;99.90
21261;DHT22;10788;47.930;9.766;2024-03-23T07:33:48;9.10;99.90
21261;DHT22;10788;47.930;9.766;2024-03-23T07:36:14;9.10;99.90
21261;DHT22;10788;47.930;9.766;2024-03-23T07:38:43;9.20;99.90
21261;DHT22;10788;47.930;9.766;2024-03-23T07:41:15;9.20;99.90
21261;DHT22;10788;47.930;9.766;2024-03-23T07:43:45;9.10;99.90
21261;DHT22;10788;47.930;9.766;2024-03-23T07:46:11;9.10;99.90
21261;DHT22;10788;47.930;9.766;2024-03-23T07:48:38;9.00;99.90
21261;DHT22;10788;47.930;9.766;2024-03-23T07:53:34;9.00;99.90
21261;DHT22;10788;47.930;9.766;2024-03-23T07:56:06;9.00;99.90
21261;DHT22;10788;47.930;9.766;2024-03-23T07:58:33;9.00;99.90
21261;DHT22;10788;47.930;9.766;2024-03-23T08:03:37;9.00;99.90
21261;DHT22;10788;47.930;9.766;2024-03-23T08:08:33;8.90;99.90
21261;DHT22;10788;47.930;9.766;2024-03-23T08:10:59;8.90;99.90
21261;DHT22;10788;47.930;9.766;2024-03-23T08:13:24;8.90;99.90
21261;DHT22;10788;47.930;9.766;2024-03-23T08:15:50;8.80;99.90
21261;DHT22;10788;47.930;9.766;2024-03-23T08:18:15;8.80;99.90
21261;DHT22;10788;47.930;9.766;2024-03-23T08:20:41;8.70;99.90
21261;DHT22;10788;47.930;9.766;2024-03-23T08:23:08;8.60;99.90
21261;DHT22;10788;47.930;9.766;2024-03-23T08:25:34;8.40;99.90
21261;DHT22;10788;47.930;9.766;2024-03-23T08:28:00;8.30;99.90
21261;DHT22;10788;47.930;9.766;2024-03-23T08:30:26;8.10;99.90
21261;DHT22;10788;47.930;9.766;2024-03-23T08:32:52;8.10;99.90
21261;DHT22;10788;47.930;9.766;2024-03-23T08:35:17;8.10;99.90
21261;DHT22;10788;47.930;9.766;2024-03-23T08:37:43;7.90;99.90
21261;DHT22;10788;47.930;9.766;2024-03-23T08:40:09;7.80;99.90
21261;DHT22;10788;47.930;9.766;2024-03-23T08:42:35;7.80;99.90
21261;DHT22;10788;47.930;9.766;2024-03-23T08:45:01;7.80;99.90
21261;DHT22;10788;47.930;9.766;2024-03-23T08:47:26;7.70;99.90
21261;DHT22;10788;47.930;9.766;2024-03-23T08:49:52;7.80;99.90
21261;DHT22;10788;47.930;9.766;2024-03-23T08:52:18;7.80;99.90
21261;DHT22;10788;47.930;9.766;2024-03-23T08:54:44;7.80;99.90
21261;DHT22;10788;47.930;9.766;2024-03-23T08:57:09;7.80;99.90
21261;DHT22;10788;47.930;9.766;2024-03-23T08:59:35;7.70;99.90
21261;DHT22;10788;47.930;9.766;2024-03-23T09:02:02;7.70;99.90
21261;DHT22;10788;47.930;9.766;2024-03-23T09:04:28;7.80;99.90
21261;DHT22;10788;47.930;9.766;2024-03-23T09:06:54;7.70;99.90
21261;DHT22;10788;47.930;9.766;2024-03-23T09:09:19;7.70;99.90
21261;DHT22;10788;47.930;9.766;2024-03-23T09:11:45;7.70;99.90
21261;DHT22;10788;47.930;9.766;2024-03-23T09:14:11;7.70;99.90
21261;DHT22;10788;47.930;9.766;2024-03-23T09:16:36;7.70;99.90
21261;DHT22;10788;47.930;9.766;2024-03-23T09:19:02;7.70;99.90
21261;DHT22;10788;47.930;9.766;2024-03-23T09:21:28;7.70;99.90
21261;DHT22;10788;47.930;9.766;2024-03-23T09:23:54;7.60;99.90
21261;DHT22;10788;47.930;9.766;2024-03-23T09:26:20;7.50;99.90
21261;DHT22;10788;47.930;9.766;2024-03-23T09:28:48;7.60;99.90
21261;DHT22;10788;47.930;9.766;2024-03-23T09:31:14;7.60;99.90
21261;DHT22;10788;47.930;9.766;2024-03-23T09:33:40;7.60;99.90
21261;DHT22;10788;47.930;9.766;2024-03-23T09:36:07;7.60;99.90
21261;DHT22;10788;47.930;9.766;2024-03-23T09:38:33;7.70;99.90
21261;DHT22;10788;47.930;9.766;2024-03-23T09:40:59;7.70;99.90
21261;DHT22;10788;47.930;9.766;2024-03-23T09:43:25;7.80;99.90
21261;DHT22;10788;47.930;9.766;2024-03-23T09:45:51;7.70;99.90
21261;DHT22;10788;47.930;9.766;2024-03-23T09:48:17;7.70;99.90
21261;DHT22;10788;47.930;9.766;2024-03-23T09:50:44;7.50;99.90
21261;DHT22;10788;47.930;9.766;2024-03-23T09:53:14;7.40;99.90
21261;DHT22;10788;47.930;9.766;2024-03-23T09:55:40;7.40;99.90
21261;DHT22;10788;47.930;9.766;2024-03-23T09:58:07;7.40;99.90
21261;DHT22;10788;47.930;9.766;2024-03-23T10:00:34;7.40;99.90
21261;DHT22;10788;47.930;9.766;2024-03-23T10:03:00;7.40;99.90
21261;DHT22;10788;47.930;9.766;2024-03-23T10:05:30;7.30;99.90
21261;DHT22;10788;47.930;9.766;2024-03-23T10:10:41;7.10;99.90
21261;DHT22;10788;47.930;9.766;2024-03-23T10:13:07;7.00;99.90
21261;DHT22;10788;47.930;9.766;2024-03-23T10:15:36;7.00;99.90
21261;DHT22;10788;47.930;9.766;2024-03-23T10:18:18;7.00;99.90
21261;DHT22;10788;47.930;9.766;2024-03-23T10:20:50;7.10;99.90
21261;DHT22;10788;47.930;9.766;2024-03-23T10:23:16;7.10;99.90
21261;DHT22;10788;47.930;9.766;2024-03-23T10:25:42;7.20;99.90
21261;DHT22;10788;47.930;9.766;2024-03-23T10:28:08;7.40;99.90
21261;DHT22;10788;47.930;9.766;2024-03-23T10:30:34;7.40;99.90
21261;DHT22;10788;47.930;9.766;2024-03-23T10:33:10;7.50;99.90
21261;DHT22;10788;47.930;9.766;2024-03-23T10:35:37;7.60;99.90
21261;DHT22;10788;47.930;9.766;2024-03-23T10:38:06;7.80;99.90
21261;DHT22;10788;47.930;9.766;2024-03-23T10:40:36;7.90;99.90
21261;DHT22;10788;47.930;9.766;2024-03-23T10:43:03;7.90;99.90
21261;DHT22;10788;47.930;9.766;2024-03-23T10:45:29;7.80;99.90
21261;DHT22;10788;47.930;9.766;2024-03-23T10:47:55;7.80;99.90
21261;DHT22;10788;47.930;9.766;2024-03-23T10:50:22;7.80;99.90
21261;DHT22;10788;47.930;9.766;2024-03-23T10:52:49;7.90;99.90
21261;DHT22;10788;47.930;9.766;2024-03-23T10:55:17;7.90;99.90
21261;DHT22;10788;47.930;9.766;2024-03-23T10:57:45;8.00;99.90
21261;DHT22;10788;47.930;9.766;2024-03-23T11:00:14;7.90;99.90
21261;DHT22;10788;47.930;9.766;2024-03-23T11:02:40;7.90;99.90
21261;DHT22;10788;47.930;9.766;2024-03-23T11:07:50;7.80;99.90
21261;DHT22;10788;47.930;9.766;2024-03-23T11:10:30;7.90;99.90
21261;DHT22;10788;47.930;9.766;2024-03-23T11:12:57;7.90;99.90
21261;DHT22;10788;47.930;9.766;2024-03-23T11:15:22;7.90;99.90
21261;DHT22;10788;47.930;9.766;2024-03-23T11:18:03;8.00;99.90
21261;DHT22;10788;47.930;9.766;2024-03-23T11:20:32;8.10;99.90
21261;DHT22;10788;47.930;9.766;2024-03-23T11:22:58;8.30;99.90
21261;DHT22;10788;47.930;9.766;2024-03-23T11:25:26;8.60;99.90
21261;DHT22;10788;47.930;9.766;2024-03-23T11:28:11;8.80;99.90
21261;DHT22;10788;47.930;9.766;2024-03-23T11:30:37;8.90;99.90
21261;DHT22;10788;47.930;9.766;2024-03-23T11:33:04;8.80;99.90
21261;DHT22;10788;47.930;9.766;2024-03-23T11:40:27;8.70;99.90
21261;DHT22;10788;47.930;9.766;2024-03-23T11:43:00;8.80;99.90
21261;DHT22;10788;47.930;9.766;2024-03-23T11:45:26;8.90;99.90
21261;DHT22;10788;47.930;9.766;2024-03-23T11:50:33;8.90;99.90
21261;DHT22;10788;47.930;9.766;2024-03-23T11:55:56;9.30;99.90
21261;DHT22;10788;47.930;9.766;2024-03-23T11:58:23;9.40;99.90
21261;DHT22;10788;47.930;9.766;2024-03-23T12:03:18;9.70;99.90
21261;DHT22;10788;47.930;9.766;2024-03-23T12:05:48;9.90;99.90
21261;DHT22;10788;47.930;9.766;2024-03-23T12:08:19;10.00;99.90
21261;DHT22;10788;47.930;9.766;2024-03-23T12:11:08;10.20;99.90
21261;DHT22;10788;47.930;9.766;2024-03-23T12:13:35;10.40;99.90
21261;DHT22;10788;47.930;9.766;2024-03-23T12:18:36;10.40;99.90
21261;DHT22;10788;47.930;9.766;2024-03-23T12:21:01;10.50;99.90
21261;DHT22;10788;47.930;9.766;2024-03-23T12:23:27;10.50;99.90
21261;DHT22;10788;47.930;9.766;2024-03-23T12:25:53;10.50;99.90
21261;DHT22;10788;47.930;9.766;2024-03-23T12:28:18;10.50;99.90
21261;DHT22;10788;47.930;9.766;2024-03-23T12:30:44;10.50;99.90
21261;DHT22;10788;47.930;9.766;2024-03-23T12:33:10;10.60;99.90
21261;DHT22;10788;47.930;9.766;2024-03-23T12:35:35;10.60;99.90
21261;DHT22;10788;47.930;9.766;2024-03-23T12:38:01;10.60;99.90
21261;DHT22;10788;47.930;9.766;2024-03-23T12:40:27;10.60;99.90
21261;DHT22;10788;47.930;9.766;2024-03-23T12:42:53;10.50;99.90
21261;DHT22;10788;47.930;9.766;2024-03-23T12:45:19;10.50;99.90
21261;DHT22;10788;47.930;9.766;2024-03-23T12:47:45;10.40;99.90
21261;DHT22;10788;47.930;9.766;2024-03-23T12:50:11;10.30;99.90
21261;DHT22;10788;47.930;9.766;2024-03-23T12:52:37;10.20;99.90
21261;DHT22;10788;47.930;9.766;2024-03-23T12:55:03;10.20;99.90
21261;DHT22;10788;47.930;9.766;2024-03-23T12:57:32;10.10;99.90
21261;DHT22;10788;47.930;9.766;2024-03-23T12:59:58;10.00;99.90
21261;DHT22;10788;47.930;9.766;2024-03-23T13:02:24;9.80;99.90
21261;DHT22;10788;47.930;9.766;2024-03-23T13:04:51;9.70;99.90
21261;DHT22;10788;47.930;9.766;2024-03-23T13:07:18;9.40;99.90
21261;DHT22;10788;47.930;9.766;2024-03-23T13:09:44;9.00;99.90
21261;DHT22;10788;47.930;9.766;2024-03-23T13:12:10;8.30;99.90
21261;DHT22;10788;47.930;9.766;2024-03-23T13:14:40;7.90;99.90
21261;DHT22;10788;47.930;9.766;2024-03-23T13:17:06;7.50;99.90
21261;DHT22;10788;47.930;9.766;2024-03-23T13:19:33;7.40;99.90
21261;DHT22;10788;47.930;9.766;2024-03-23T13:21:59;7.40;99.90
21261;DHT22;10788;47.930;9.766;2024-03-23T13:24:26;7.30;99.90
21261;DHT22;10788;47.930;9.766;2024-03-23T13:26:53;7.20;99.90
21261;DHT22;10788;47.930;9.766;2024-03-23T13:29:19;7.40;99.90
21261;DHT22;10788;47.930;9.766;2024-03-23T13:31:50;7.40;99.90
21261;DHT22;10788;47.930;9.766;2024-03-23T13:34:16;7.40;99.90
21261;DHT22;10788;47.930;9.766;2024-03-23T13:36:45;7.40;99.90
21261;DHT22;10788;47.930;9.766;2024-03-23T13:39:12;7.40;99.90
21261;DHT22;10788;47.930;9.766;2024-03-23T13:41:38;7.40;99.90
21261;DHT22;10788;47.930;9.766;2024-03-23T13:44:05;7.40;99.90
21261;DHT22;10788;47.930;9.766;2024-03-23T13:46:31;7.50;99.90
21261;DHT22;10788;47.930;9.766;2024-03-23T13:48:57;7.60;99.90
21261;DHT22;10788;47.930;9.766;2024-03-23T13:51:24;7.70;99.90
21261;DHT22;10788;47.930;9.766;2024-03-23T13:53:53;7.70;99.90
21261;DHT22;10788;47.930;9.766;2024-03-23T13:56:18;7.70;99.90
21261;DHT22;10788;47.930;9.766;2024-03-23T13:58:44;7.70;99.90
21261;DHT22;10788;47.930;9.766;2024-03-23T14:01:13;7.70;99.90
21261;DHT22;10788;47.930;9.766;2024-03-23T14:03:39;7.80;99.90
21261;DHT22;10788;47.930;9.766;2024-03-23T14:06:05;7.90;99.90
21261;DHT22;10788;47.930;9.766;2024-03-23T14:08:33;7.90;99.90
21261;DHT22;10788;47.930;9.766;2024-03-23T14:11:03;8.00;99.90
21261;DHT22;10788;47.930;9.766;2024-03-23T14:13:30;8.00;99.90
21261;DHT22;10788;47.930;9.766;2024-03-23T14:15:55;8.10;99.90
21261;DHT22;10788;47.930;9.766;2024-03-23T14:18:21;8.10;99.90
21261;DHT22;10788;47.930;9.766;2024-03-23T14:20:50;8.10;99.90
21261;DHT22;10788;47.930;9.766;2024-03-23T14:23:16;8.20;99.90
21261;DHT22;10788;47.930;9.766;2024-03-23T14:25:43;8.30;99.90
21261;DHT22;10788;47.930;9.766;2024-03-23T14:28:09;8.30;99.90
21261;DHT22;10788;47.930;9.766;2024-03-23T14:30:40;8.20;99.90
21261;DHT22;10788;47.930;9.766;2024-03-23T14:33:07;8.30;99.90
21261;DHT22;10788;47.930;9.766;2024-03-23T14:35:32;8.30;99.90
21261;DHT22;10788;47.930;9.766;2024-03-23T14:37:58;8.50;99.90
21261;DHT22;10788;47.930;9.766;2024-03-23T14:40:24;8.50;99.90
21261;DHT22;10788;47.930;9.766;2024-03-23T14:42:56;8.50;99.90
21261;DHT22;10788;47.930;9.766;2024-03-23T14:45:22;8.50;99.90
21261;DHT22;10788;47.930;9.766;2024-03-23T14:47:50;8.50;99.90
21261;DHT22;10788;47.930;9.766;2024-03-23T14:50:15;8.40;99.90
21261;DHT22;10788;47.930;9.766;2024-03-23T14:52:45;8.50;99.90
21261;DHT22;10788;47.930;9.766;2024-03-23T14:55:14;8.40;99.90
21261;DHT22;10788;47.930;9.766;2024-03-23T14:57:40;8.40;99.90
21261;DHT22;10788;47.930;9.766;2024-03-23T15:00:10;8.40;99.90
21261;DHT22;10788;47.930;9.766;2024-03-23T15:02:39;8.40;99.90
21261;DHT22;10788;47.930;9.766;2024-03-23T15:05:06;8.30;99.90
21261;DHT22;10788;47.930;9.766;2024-03-23T15:07:36;8.30;99.90
21261;DHT22;10788;47.930;9.766;2024-03-23T15:10:04;8.30;99.90
21261;DHT22;10788;47.930;9.766;2024-03-23T15:12:30;8.10;99.90
21261;DHT22;10788;47.930;9.766;2024-03-23T15:14:59;8.00;99.90
21261;DHT22;10788;47.930;9.766;2024-03-23T15:17:25;8.10;99.90
21261;DHT22;10788;47.930;9.766;2024-03-23T15:19:51;8.00;99.90
21261;DHT22;10788;47.930;9.766;2024-03-23T15:22:18;8.00;99.90
21261;DHT22;10788;47.930;9.766;2024-03-23T15:24:44;8.00;99.90
21261;DHT22;10788;47.930;9.766;2024-03-23T15:27:09;7.90;99.90
21261;DHT22;10788;47.930;9.766;2024-03-23T15:29:35;7.90;99.90
21261;DHT22;10788;47.930;9.766;2024-03-23T15:32:02;7.90;99.90
21261;DHT22;10788;47.930;9.766;2024-03-23T15:34:29;8.00;99.90
21261;DHT22;10788;47.930;9.766;2024-03-23T15:36:54;8.10;99.90
21261;DHT22;10788;47.930;9.766;2024-03-23T15:39:20;8.10;99.90
21261;DHT22;10788;47.930;9.766;2024-03-23T15:41:47;8.10;99.90
21261;DHT22;10788;47.930;9.766;2024-03-23T15:44:14;8.20;99.90
21261;DHT22;10788;47.930;9.766;2024-03-23T15:46:39;8.40;99.90
21261;DHT22;10788;47.930;9.766;2024-03-23T15:49:05;8.40;99.90
21261;DHT22;10788;47.930;9.766;2024-03-23T15:51:32;8.30;99.90
21261;DHT22;10788;47.930;9.766;2024-03-23T15:54:05;8.30;99.90
21261;DHT22;10788;47.930;9.766;2024-03-23T15:56:31;8.30;99.90
21261;DHT22;10788;47.930;9.766;2024-03-23T15:58:57;8.30;99.90
21261;DHT22;10788;47.930;9.766;2024-03-23T16:01:32;8.30;99.90
21261;DHT22;10788;47.930;9.766;2024-03-23T16:04:03;8.30;99.90
21261;DHT22;10788;47.930;9.766;2024-03-23T16:06:29;8.30;99.90
21261;DHT22;10788;47.930;9.766;2024-03-23T16:08:54;8.30;99.90
21261;DHT22;10788;47.930;9.766;2024-03-23T16:11:20;8.20;99.90
21261;DHT22;10788;47.930;9.766;2024-03-23T16:13:46;8.30;99.90
21261;DHT22;10788;47.930;9.766;2024-03-23T16:16:12;8.20;99.90
21261;DHT22;10788;47.930;9.766;2024-03-23T16:18:38;8.20;99.90
21261;DHT22;10788;47.930;9.766;2024-03-23T16:21:09;8.10;99.90
21261;DHT22;10788;47.930;9.766;2024-03-23T16:23:36;8.10;99.90
21261;DHT22;10788;47.930;9.766;2024-03-23T16:26:03;8.10;99.90
21261;DHT22;10788;47.930;9.766;2024-03-23T16:28:34;8.10;99.90
21261;DHT22;10788;47.930;9.766;2024-03-23T16:31:02;8.10;99.90
21261;DHT22;10788;47.930;9.766;2024-03-23T16:33:29;8.10;99.90
21261;DHT22;10788;47.930;9.766;2024-03-23T16:36:04;8.20;99.90
21261;DHT22;10788;47.930;9.766;2024-03-23T16:38:31;8.10;99.90
21261;DHT22;10788;47.930;9.766;2024-03-23T16:41:05;8.00;99.90
21261;DHT22;10788;47.930;9.766;2024-03-23T16:43:32;7.90;99.90
21261;DHT22;10788;47.930;9.766;2024-03-23T16:45:59;7.70;99.90
21261;DHT22;10788;47.930;9.766;2024-03-23T16:48:27;7.70;99.90
21261;DHT22;10788;47.930;9.766;2024-03-23T16:50:53;7.70;99.90
21261;DHT22;10788;47.930;9.766;2024-03-23T16:53:19;7.70;99.90
21261;DHT22;10788;47.930;9.766;2024-03-23T16:55:45;7.70;99.90
21261;DHT22;10788;47.930;9.766;2024-03-23T16:58:11;7.60;99.90
21261;DHT22;10788;47.930;9.766;2024-03-23T17:00:37;7.60;99.90
21261;DHT22;10788;47.930;9.766;2024-03-23T17:03:03;7.40;99.90